createdAt,value
2022-08-04T00:00:11.126Z,87.23
2022-08-04T00:02:43.147Z,87.16
2022-08-04T00:05:29.866Z,87.89
2022-08-04T00:08:30.918Z,87.13
2022-08-04T00:11:00.307Z,86.80
2022-08-04T00:13:30.711Z,86.92
2022-08-04T00:16:09.702Z,88.10
2022-08-04T00:19:01.681Z,87.29
2022-08-04T00:21:28.679Z,87.07
2022-08-04T00:24:10.791Z,86.65
2022-08-04T00:26:41.294Z,86.90
2022-08-04T00:29:08.181Z,86.88
2022-08-04T00:31:56.748Z,86.66
2022-08-04T00:34:26.001Z,87.13
2022-08-04T00:36:54.965Z,87.35
2022-08-04T00:39:22.855Z,87.66
2022-08-04T00:41:58.119Z,87.19
2022-08-04T00:45:03.057Z,87.28
2022-08-04T00:47:42.140Z,87.49
2022-08-04T00:50:14.430Z,86.98
2022-08-04T00:52:47.233Z,87.66
2022-08-04T00:55:35.120Z,86.94
2022-08-04T00:58:01.894Z,86.56
2022-08-04T01:00:40.634Z,86.17
2022-08-04T01:03:22.544Z,86.23
2022-08-04T01:06:18.432Z,86.65
2022-08-04T01:09:04.681Z,87.05
2022-08-04T01:11:31.513Z,86.98
2022-08-04T01:14:35.616Z,86.91
2022-08-04T01:17:20.571Z,86.65
2022-08-04T01:20:07.194Z,86.95
2022-08-04T01:22:34.141Z,86.83
2022-08-04T01:25:43.812Z,86.48
2022-08-04T01:28:31.443Z,86.69
2022-08-04T01:31:07.764Z,86.57
2022-08-04T01:33:58.591Z,86.32
2022-08-04T01:36:33.638Z,86.30
2022-08-04T01:39:21.307Z,86.32
2022-08-04T01:41:57.769Z,86.74
2022-08-04T01:44:29.440Z,87.07
2022-08-04T01:46:56.503Z,86.62
2022-08-04T01:49:29.617Z,86.95
2022-08-04T01:52:00.364Z,87.25
2022-08-04T01:54:32.317Z,86.83
2022-08-04T01:57:38.608Z,86.72
2022-08-04T01:59:53.657Z,86.17
2022-08-04T02:02:24.492Z,86.49
2022-08-04T02:04:52.102Z,86.24
2022-08-04T02:07:40.689Z,87.28
2022-08-04T02:10:30.744Z,87.26
2022-08-04T02:13:22.196Z,87.39
2022-08-04T02:16:18.747Z,88.06
2022-08-04T02:19:15.924Z,88.94
2022-08-04T02:21:49.065Z,88.89
2022-08-04T02:24:22.105Z,89.12
2022-08-04T02:26:52.349Z,88.60
2022-08-04T02:29:37.829Z,89.18
2022-08-04T02:32:10.243Z,89.07
2022-08-04T02:34:54.493Z,88.37
2022-08-04T02:37:24.327Z,88.69
2022-08-04T02:39:54.408Z,88.49
2022-08-04T02:42:22.099Z,88.90
2022-08-04T02:44:51.490Z,89.00
2022-08-04T02:48:30.480Z,88.67
2022-08-04T02:50:14.829Z,88.61
2022-08-04T02:52:58.319Z,89.07
2022-08-04T02:55:27.459Z,88.21
2022-08-04T02:57:56.047Z,88.49
2022-08-04T03:00:23.012Z,88.60
2022-08-04T03:03:06.214Z,87.87
2022-08-04T03:06:11.626Z,87.84
2022-08-04T03:08:57.267Z,88.46
2022-08-04T03:12:01.372Z,87.62
2022-08-04T03:14:40.236Z,87.87
2022-08-04T03:17:52.976Z,87.62
2022-08-04T03:20:29.539Z,87.59
2022-08-04T03:23:13.473Z,87.59
2022-08-04T03:26:02.823Z,87.83
2022-08-04T03:28:47.997Z,87.99
2022-08-04T03:31:17.685Z,87.85
2022-08-04T03:33:56.698Z,87.80
2022-08-04T03:37:03.234Z,87.41
2022-08-04T03:39:51.692Z,88.21
2022-08-04T03:42:43.233Z,88.02
2022-08-04T03:46:06.953Z,87.79
2022-08-04T03:49:11.472Z,88.08
2022-08-04T03:52:02.260Z,87.99
2022-08-04T03:54:44.079Z,88.37
2022-08-04T03:57:13.861Z,88.46
2022-08-04T03:59:58.139Z,88.47
2022-08-04T04:03:02.879Z,88.10
2022-08-04T04:05:59.818Z,88.21
2022-08-04T04:08:56.648Z,88.37
2022-08-04T04:11:56.326Z,88.33
2022-08-04T04:15:08.853Z,87.92
2022-08-04T04:17:35.590Z,87.93
2022-08-04T04:20:14.457Z,87.65
2022-08-04T04:23:01.125Z,87.88
2022-08-04T04:25:59.423Z,88.12
2022-08-04T04:28:46.426Z,87.90
2022-08-04T04:31:34.534Z,88.57
2022-08-04T04:34:39.970Z,88.84
2022-08-04T04:37:10.122Z,89.07
2022-08-04T04:39:55.683Z,88.50
2022-08-04T04:42:52.939Z,89.20
2022-08-04T04:45:42.991Z,89.48
2022-08-04T04:48:37.999Z,89.58
2022-08-04T04:51:10.783Z,89.00
2022-08-04T04:54:05.564Z,88.95
2022-08-04T04:56:48.898Z,89.03
2022-08-04T04:59:20.816Z,89.04
2022-08-04T05:02:22.763Z,89.13
2022-08-04T05:05:15.809Z,88.96
2022-08-04T05:07:57.658Z,88.75
2022-08-04T05:11:06.297Z,89.09
2022-08-04T05:14:37.887Z,88.88
2022-08-04T05:16:46.855Z,89.01
2022-08-04T05:19:25.788Z,89.17
2022-08-04T05:22:04.259Z,88.89
2022-08-04T05:24:37.419Z,89.38
2022-08-04T05:27:19.325Z,89.08
2022-08-04T05:29:59.456Z,89.37
2022-08-04T05:32:37.457Z,89.47
2022-08-04T05:35:09.448Z,89.03
2022-08-04T05:37:40.422Z,88.76
2022-08-04T05:40:09.482Z,89.19
2022-08-04T05:42:38.743Z,89.32
2022-08-04T05:45:08.601Z,89.17
2022-08-04T05:47:36.903Z,89.34
2022-08-04T05:50:06.276Z,89.25
2022-08-04T05:52:36.489Z,89.25
2022-08-04T05:55:04.804Z,89.83
2022-08-04T05:57:32.908Z,89.76
2022-08-04T06:00:25.151Z,89.80
2022-08-04T06:02:52.947Z,89.53
2022-08-04T06:05:20.038Z,89.60
2022-08-04T06:08:04.607Z,89.91
2022-08-04T06:10:39.146Z,89.89
2022-08-04T06:13:49.204Z,89.83
2022-08-04T06:16:01.368Z,89.60
2022-08-04T06:19:57.630Z,89.19
2022-08-04T06:21:21.059Z,89.69
2022-08-04T06:24:00.746Z,89.40
2022-08-04T06:26:34.772Z,89.16
2022-08-04T06:29:03.270Z,89.42
2022-08-04T06:32:31.763Z,89.91
2022-08-04T06:34:45.554Z,88.68
2022-08-04T06:37:41.140Z,89.19
2022-08-04T06:40:03.146Z,88.24
2022-08-04T06:42:51.318Z,88.62
2022-08-04T06:45:20.753Z,88.96
2022-08-04T06:47:51.791Z,88.88
2022-08-04T06:51:25.745Z,88.71
2022-08-04T06:53:07.122Z,89.13
2022-08-04T06:55:35.023Z,88.20
2022-08-04T06:58:04.449Z,88.42
2022-08-04T07:00:32.589Z,88.26
2022-08-04T07:03:01.696Z,87.62
2022-08-04T07:05:29.045Z,88.07
2022-08-04T07:07:58.469Z,87.30
2022-08-04T07:10:28.168Z,87.31
2022-08-04T07:12:59.789Z,87.15
2022-08-04T07:15:27.703Z,86.92
2022-08-04T07:18:00.077Z,86.21
2022-08-04T07:20:34.826Z,85.77
2022-08-04T07:23:06.985Z,85.49
2022-08-04T07:25:59.934Z,85.10
2022-08-04T07:28:27.031Z,85.35
2022-08-04T07:30:55.327Z,85.38
2022-08-04T07:33:23.135Z,85.46
2022-08-04T07:36:09.322Z,84.65
2022-08-04T07:38:48.424Z,84.85
2022-08-04T07:41:38.743Z,85.14
2022-08-04T07:44:07.121Z,84.06
2022-08-04T07:46:34.206Z,84.18
